sensor_id;sensor_type;location;lat;lon;timestamp;pressure;altitude;pressure_sealevel;temperature;humidity
11327;BME280;5718;42.138;24.762;2023-12-04T00:00:52;100008.94;;;6.09;100.00
11327;BME280;5718;42.138;24.762;2023-12-04T00:03:18;100009.81;;;6.10;100.00
11327;BME280;5718;42.138;24.762;2023-12-04T00:05:45;100009.78;;;6.08;100.00
11327;BME280;5718;42.138;24.762;2023-12-04T00:08:12;100010.69;;;6.10;100.00
11327;BME280;5718;42.138;24.762;2023-12-04T00:10:39;100017.47;;;6.07;100.00
11327;BME280;5718;42.138;24.762;2023-12-04T00:13:06;100027.13;;;6.14;100.00
11327;BME280;5718;42.138;24.762;2023-12-04T00:15:33;100033.63;;;6.00;100.00
11327;BME280;5718;42.138;24.762;2023-12-04T00:18:01;100031.00;;;5.98;100.00
11327;BME280;5718;42.138;24.762;2023-12-04T00:20:28;100030.03;;;5.95;100.00
11327;BME280;5718;42.138;24.762;2023-12-04T00:22:55;100045.31;;;5.88;100.00
11327;BME280;5718;42.138;24.762;2023-12-04T00:25:22;100048.66;;;5.86;100.00
11327;BME280;5718;42.138;24.762;2023-12-04T00:27:49;100049.41;;;5.82;100.00
11327;BME280;5718;42.138;24.762;2023-12-04T00:30:18;100050.97;;;5.77;100.00
11327;BME280;5718;42.138;24.762;2023-12-04T00:32:47;100064.59;;;5.71;100.00
11327;BME280;5718;42.138;24.762;2023-12-04T00:35:16;100076.56;;;5.71;100.00
11327;BME280;5718;42.138;24.762;2023-12-04T00:37:42;100073.88;;;5.66;100.00
11327;BME280;5718;42.138;24.762;2023-12-04T00:40:10;100071.91;;;5.57;100.00
11327;BME280;5718;42.138;24.762;2023-12-04T00:42:37;100072.97;;;5.64;100.00
11327;BME280;5718;42.138;24.762;2023-12-04T00:45:05;100067.72;;;5.61;100.00
11327;BME280;5718;42.138;24.762;2023-12-04T00:47:32;100060.16;;;5.67;100.00
11327;BME280;5718;42.138;24.762;2023-12-04T00:49:59;100048.72;;;5.57;100.00
11327;BME280;5718;42.138;24.762;2023-12-04T00:52:27;100063.56;;;5.66;100.00
11327;BME280;5718;42.138;24.762;2023-12-04T00:54:54;100066.84;;;5.60;100.00
11327;BME280;5718;42.138;24.762;2023-12-04T00:57:21;100069.41;;;5.60;100.00
11327;BME280;5718;42.138;24.762;2023-12-04T00:59:48;100069.41;;;5.60;100.00
11327;BME280;5718;42.138;24.762;2023-12-04T01:02:16;100083.16;;;5.61;100.00
11327;BME280;5718;42.138;24.762;2023-12-04T01:04:43;100082.19;;;5.56;100.00
11327;BME280;5718;42.138;24.762;2023-12-04T01:07:10;100089.94;;;5.57;100.00
11327;BME280;5718;42.138;24.762;2023-12-04T01:09:38;100099.25;;;5.54;100.00
11327;BME280;5718;42.138;24.762;2023-12-04T01:12:06;100100.88;;;5.50;100.00
11327;BME280;5718;42.138;24.762;2023-12-04T01:14:32;100107.75;;;5.50;100.00
11327;BME280;5718;42.138;24.762;2023-12-04T01:16:59;100104.25;;;5.48;100.00
11327;BME280;5718;42.138;24.762;2023-12-04T01:19:26;100099.97;;;5.48;100.00
11327;BME280;5718;42.138;24.762;2023-12-04T01:21:53;100099.19;;;5.51;100.00
11327;BME280;5718;42.138;24.762;2023-12-04T01:24:20;100100.13;;;5.54;100.00
11327;BME280;5718;42.138;24.762;2023-12-04T01:26:48;100104.25;;;5.48;100.00
11327;BME280;5718;42.138;24.762;2023-12-04T01:29:15;100112.91;;;5.50;100.00
11327;BME280;5718;42.138;24.762;2023-12-04T01:31:42;100111.94;;;5.46;100.00
11327;BME280;5718;42.138;24.762;2023-12-04T01:34:09;100112.66;;;5.42;100.00
11327;BME280;5718;42.138;24.762;2023-12-04T01:36:40;100117.72;;;5.39;100.00
11327;BME280;5718;42.138;24.762;2023-12-04T01:39:07;100118.63;;;5.41;100.00
11327;BME280;5718;42.138;24.762;2023-12-04T01:41:34;100109.72;;;5.30;100.00
11327;BME280;5718;42.138;24.762;2023-12-04T01:44:02;100120.91;;;5.30;100.00
11327;BME280;5718;42.138;24.762;2023-12-04T01:46:29;100120.91;;;5.30;100.00
11327;BME280;5718;42.138;24.762;2023-12-04T01:48:56;100120.91;;;5.30;100.00
11327;BME280;5718;42.138;24.762;2023-12-04T01:51:24;100119.91;;;5.27;100.00
11327;BME280;5718;42.138;24.762;2023-12-04T01:53:53;100120.81;;;5.29;100.00
11327;BME280;5718;42.138;24.762;2023-12-04T01:56:21;100126.72;;;5.25;100.00
11327;BME280;5718;42.138;24.762;2023-12-04T01:58:48;100123.09;;;5.20;100.00
11327;BME280;5718;42.138;24.762;2023-12-04T02:01:17;100126.63;;;5.22;100.00
11327;BME280;5718;42.138;24.762;2023-12-04T02:03:46;100130.22;;;5.27;100.00
11327;BME280;5718;42.138;24.762;2023-12-04T02:06:13;100137.06;;;5.26;100.00
11327;BME280;5718;42.138;24.762;2023-12-04T02:08:42;100130.84;;;5.20;100.00
11327;BME280;5718;42.138;24.762;2023-12-04T02:11:10;100136.16;;;5.24;100.00
11327;BME280;5718;42.138;24.762;2023-12-04T02:13:37;100143.88;;;5.24;100.00
11327;BME280;5718;42.138;24.762;2023-12-04T02:16:09;100140.88;;;5.12;100.00
11327;BME280;5718;42.138;24.762;2023-12-04T02:18:38;100135.66;;;5.09;100.00
11327;BME280;5718;42.138;24.762;2023-12-04T02:21:05;100144.25;;;5.10;100.00
11327;BME280;5718;42.138;24.762;2023-12-04T02:23:33;100149.56;;;5.14;100.00
11327;BME280;5718;42.138;24.762;2023-12-04T02:26:05;100160.53;;;5.08;100.00
11327;BME280;5718;42.138;24.762;2023-12-04T02:28:37;100168.94;;;5.04;100.00
11327;BME280;5718;42.138;24.762;2023-12-04T02:31:05;100164.78;;;5.08;100.00
11327;BME280;5718;42.138;24.762;2023-12-04T02:33:34;100182.06;;;5.12;100.00
11327;BME280;5718;42.138;24.762;2023-12-04T02:36:04;100179.44;;;5.11;100.00
11327;BME280;5718;42.138;24.762;2023-12-04T02:38:32;100178.38;;;5.04;100.00
11327;BME280;5718;42.138;24.762;2023-12-04T02:41:00;100180.16;;;5.05;100.00
11327;BME280;5718;42.138;24.762;2023-12-04T02:43:27;100185.38;;;5.08;100.00
11327;BME280;5718;42.138;24.762;2023-12-04T02:45:54;100184.59;;;5.11;100.00
11327;BME280;5718;42.138;24.762;2023-12-04T02:48:21;100189.69;;;5.09;100.00
11327;BME280;5718;42.138;24.762;2023-12-04T02:50:48;100183.63;;;5.07;100.00
11327;BME280;5718;42.138;24.762;2023-12-04T02:53:15;100181.09;;;5.08;100.00
11327;BME280;5718;42.138;24.762;2023-12-04T02:55:42;100179.16;;;5.01;100.00
11327;BME280;5718;42.138;24.762;2023-12-04T02:58:10;100181.09;;;5.08;100.00
11327;BME280;5718;42.138;24.762;2023-12-04T03:00:37;100186.97;;;5.04;100.00
11327;BME280;5718;42.138;24.762;2023-12-04T03:03:04;100194.81;;;5.07;100.00
11327;BME280;5718;42.138;24.762;2023-12-04T03:05:31;100192.94;;;5.03;100.00
11327;BME280;5718;42.138;24.762;2023-12-04T03:07:58;100195.94;;;4.90;100.00
11327;BME280;5718;42.138;24.762;2023-12-04T03:10:25;100204.41;;;4.88;100.00
11327;BME280;5718;42.138;24.762;2023-12-04T03:12:51;100210.19;;;4.81;100.00
11327;BME280;5718;42.138;24.762;2023-12-04T03:15:20;100226.38;;;4.78;100.00
11327;BME280;5718;42.138;24.762;2023-12-04T03:17:47;100226.44;;;4.79;100.00
11327;BME280;5718;42.138;24.762;2023-12-04T03:20:14;100235.72;;;4.74;100.00
11327;BME280;5718;42.138;24.762;2023-12-04T03:22:41;100228.41;;;4.63;100.00
11327;BME280;5718;42.138;24.762;2023-12-04T03:25:08;100243.78;;;4.61;100.00
11327;BME280;5718;42.138;24.762;2023-12-04T03:27:35;100223.22;;;4.61;100.00
11327;BME280;5718;42.138;24.762;2023-12-04T03:30:02;100241.91;;;4.56;100.00
11327;BME280;5718;42.138;24.762;2023-12-04T03:32:31;100242.06;;;4.60;100.00
11327;BME280;5718;42.138;24.762;2023-12-04T03:34:58;100242.16;;;4.63;100.00
11327;BME280;5718;42.138;24.762;2023-12-04T03:37:25;100244.66;;;4.62;100.00
11327;BME280;5718;42.138;24.762;2023-12-04T03:39:52;100253.22;;;4.61;100.00
11327;BME280;5718;42.138;24.762;2023-12-04T03:42:19;100246.22;;;4.57;100.00
11327;BME280;5718;42.138;24.762;2023-12-04T03:44:45;100247.19;;;4.60;100.00
11327;BME280;5718;42.138;24.762;2023-12-04T03:47:12;100238.69;;;4.63;100.00
11327;BME280;5718;42.138;24.762;2023-12-04T03:49:41;100243.69;;;4.58;100.00
11327;BME280;5718;42.138;24.762;2023-12-04T03:52:08;100245.22;;;4.53;100.00
11327;BME280;5718;42.138;24.762;2023-12-04T03:54:34;100245.13;;;4.50;100.00
11327;BME280;5718;42.138;24.762;2023-12-04T03:57:01;100255.31;;;4.47;100.00
11327;BME280;5718;42.138;24.762;2023-12-04T03:59:28;100254.41;;;4.46;100.00
11327;BME280;5718;42.138;24.762;2023-12-04T04:01:55;100250.94;;;4.46;100.00
11327;BME280;5718;42.138;24.762;2023-12-04T04:04:22;100227.88;;;4.47;100.00
11327;BME280;5718;42.138;24.762;2023-12-04T04:06:51;100224.44;;;4.47;100.00
11327;BME280;5718;42.138;24.762;2023-12-04T04:09:17;100226.25;;;4.49;100.00
11327;BME280;5718;42.138;24.762;2023-12-04T04:11:45;100221.94;;;4.48;100.00
11327;BME280;5718;42.138;24.762;2023-12-04T04:14:12;100229.69;;;4.50;100.00
11327;BME280;5718;42.138;24.762;2023-12-04T04:16:39;100232.41;;;4.55;100.00
11327;BME280;5718;42.138;24.762;2023-12-04T04:19:06;100236.63;;;4.53;100.00
11327;BME280;5718;42.138;24.762;2023-12-04T04:21:33;100243.50;;;4.54;100.00
11327;BME280;5718;42.138;24.762;2023-12-04T04:24:02;100256.19;;;4.47;100.00
11327;BME280;5718;42.138;24.762;2023-12-04T04:26:29;100262.72;;;4.39;100.00
11327;BME280;5718;42.138;24.762;2023-12-04T04:28:56;100268.75;;;4.40;100.00
11327;BME280;5718;42.138;24.762;2023-12-04T04:31:23;100256.47;;;4.33;100.00
11327;BME280;5718;42.138;24.762;2023-12-04T04:33:50;100260.75;;;4.32;100.00
11327;BME280;5718;42.138;24.762;2023-12-04T04:36:16;100264.94;;;4.30;100.00
11327;BME280;5718;42.138;24.762;2023-12-04T04:38:43;100264.72;;;4.24;100.00
11327;BME280;5718;42.138;24.762;2023-12-04T04:41:14;100257.94;;;4.26;100.00
11327;BME280;5718;42.138;24.762;2023-12-04T04:43:41;100268.81;;;4.19;100.00
11327;BME280;5718;42.138;24.762;2023-12-04T04:46:09;100283.34;;;4.18;100.00
11327;BME280;5718;42.138;24.762;2023-12-04T04:48:36;100279.66;;;4.12;100.00
11327;BME280;5718;42.138;24.762;2023-12-04T04:51:03;100286.50;;;4.11;100.00
11327;BME280;5718;42.138;24.762;2023-12-04T04:53:30;100293.47;;;4.14;100.00
11327;BME280;5718;42.138;24.762;2023-12-04T04:55:57;100283.88;;;4.10;100.00
11327;BME280;5718;42.138;24.762;2023-12-04T04:58:25;100288.16;;;4.09;100.00
11327;BME280;5718;42.138;24.762;2023-12-04T05:00:52;100291.47;;;4.07;100.00
11327;BME280;5718;42.138;24.762;2023-12-04T05:03:19;100303.25;;;4.02;100.00
11327;BME280;5718;42.138;24.762;2023-12-04T05:05:46;100301.50;;;4.01;100.00
11327;BME280;5718;42.138;24.762;2023-12-04T05:08:13;100300.69;;;4.02;100.00
11327;BME280;5718;42.138;24.762;2023-12-04T05:10:40;100310.28;;;4.06;100.00
11327;BME280;5718;42.138;24.762;2023-12-04T05:13:07;100321.19;;;4.00;100.00
11327;BME280;5718;42.138;24.762;2023-12-04T05:15:36;100310.00;;;3.98;100.00
11327;BME280;5718;42.138;24.762;2023-12-04T05:18:03;100327.09;;;3.98;100.00
11327;BME280;5718;42.138;24.762;2023-12-04T05:20:30;100327.25;;;4.02;100.00
11327;BME280;5718;42.138;24.762;2023-12-04T05:22:57;100334.16;;;4.03;100.00
11327;BME280;5718;42.138;24.762;2023-12-04T05:25:23;100332.28;;;3.99;100.00
11327;BME280;5718;42.138;24.762;2023-12-04T05:27:50;100346.69;;;3.95;100.00
11327;BME280;5718;42.138;24.762;2023-12-04T05:30:18;100348.34;;;3.93;100.00
11327;BME280;5718;42.138;24.762;2023-12-04T05:32:46;100351.00;;;3.97;100.00
11327;BME280;5718;42.138;24.762;2023-12-04T05:35:15;100350.28;;;3.99;100.00
11327;BME280;5718;42.138;24.762;2023-12-04T05:37:42;100354.66;;;4.02;100.00
11327;BME280;5718;42.138;24.762;2023-12-04T05:40:11;100356.41;;;4.03;100.00
11327;BME280;5718;42.138;24.762;2023-12-04T05:42:38;100352.16;;;4.03;100.00
11327;BME280;5718;42.138;24.762;2023-12-04T05:45:05;100356.47;;;4.04;100.00
11327;BME280;5718;42.138;24.762;2023-12-04T05:47:33;100362.69;;;4.09;100.00
11327;BME280;5718;42.138;24.762;2023-12-04T05:50:01;100366.00;;;4.07;100.00
11327;BME280;5718;42.138;24.762;2023-12-04T05:52:28;100376.41;;;4.10;100.00
11327;BME280;5718;42.138;24.762;2023-12-04T05:54:55;100372.09;;;4.09;100.00
11327;BME280;5718;42.138;24.762;2023-12-04T05:57:22;100370.94;;;4.02;100.00
11327;BME280;5718;42.138;24.762;2023-12-04T05:59:49;100386.44;;;4.04;100.00
11327;BME280;5718;42.138;24.762;2023-12-04T06:02:16;100395.72;;;4.00;100.00
11327;BME280;5718;42.138;24.762;2023-12-04T06:04:43;100397.97;;;3.92;100.00
11327;BME280;5718;42.138;24.762;2023-12-04T06:07:11;100394.31;;;3.87;100.00
11327;BME280;5718;42.138;24.762;2023-12-04T06:09:38;100396.22;;;3.91;100.00
11327;BME280;5718;42.138;24.762;2023-12-04T06:12:05;100394.22;;;3.84;100.00
11327;BME280;5718;42.138;24.762;2023-12-04T06:14:35;100399.59;;;3.90;100.00
11327;BME280;5718;42.138;24.762;2023-12-04T06:17:02;100394.59;;;3.93;100.00
11327;BME280;5718;42.138;24.762;2023-12-04T06:19:29;100392.28;;;4.00;100.00
11327;BME280;5718;42.138;24.762;2023-12-04T06:21:56;100399.22;;;4.02;100.00
11327;BME280;5718;42.138;24.762;2023-12-04T06:24:25;100405.38;;;4.06;100.00
11327;BME280;5718;42.138;24.762;2023-12-04T06:26:53;100415.78;;;4.09;100.00
11327;BME280;5718;42.138;24.762;2023-12-04T06:29:20;100414.91;;;4.08;100.00
11327;BME280;5718;42.138;24.762;2023-12-04T06:31:47;100423.09;;;4.00;100.00
11327;BME280;5718;42.138;24.762;2023-12-04T06:34:15;100423.22;;;4.03;100.00
11327;BME280;5718;42.138;24.762;2023-12-04T06:36:42;100430.13;;;4.04;100.00
11327;BME280;5718;42.138;24.762;2023-12-04T06:39:10;100425.78;;;4.03;100.00
11327;BME280;5718;42.138;24.762;2023-12-04T06:41:40;100428.50;;;4.06;100.00
11327;BME280;5718;42.138;24.762;2023-12-04T06:44:08;100436.38;;;4.10;100.00
11327;BME280;5718;42.138;24.762;2023-12-04T06:46:37;100436.22;;;4.06;100.00
11327;BME280;5718;42.138;24.762;2023-12-04T06:49:05;100431.81;;;4.03;100.00
11327;BME280;5718;42.138;24.762;2023-12-04T06:51:32;100431.31;;;4.12;100.00
11327;BME280;5718;42.138;24.762;2023-12-04T06:53:59;100428.41;;;4.04;99.92
11327;BME280;5718;42.138;24.762;2023-12-04T06:56:26;100438.78;;;4.06;100.00
11327;BME280;5718;42.138;24.762;2023-12-04T06:58:55;100442.34;;;4.09;99.99
11327;BME280;5718;42.138;24.762;2023-12-04T07:01:21;100440.44;;;4.05;99.60
11327;BME280;5718;42.138;24.762;2023-12-04T07:03:48;100447.53;;;4.11;100.00
11327;BME280;5718;42.138;24.762;2023-12-04T07:06:15;100451.19;;;4.16;100.00
11327;BME280;5718;42.138;24.762;2023-12-04T07:08:43;100451.56;;;4.25;100.00
11327;BME280;5718;42.138;24.762;2023-12-04T07:11:10;100456.16;;;4.32;100.00
11327;BME280;5718;42.138;24.762;2023-12-04T07:13:40;100454.31;;;4.30;100.00
11327;BME280;5718;42.138;24.762;2023-12-04T07:16:09;100460.31;;;4.30;100.00
11327;BME280;5718;42.138;24.762;2023-12-04T07:18:36;100458.56;;;4.29;100.00
11327;BME280;5718;42.138;24.762;2023-12-04T07:21:04;100463.16;;;4.36;100.00
11327;BME280;5718;42.138;24.762;2023-12-04T07:23:31;100466.28;;;4.29;98.59
11327;BME280;5718;42.138;24.762;2023-12-04T07:25:58;100463.09;;;4.35;99.60
11327;BME280;5718;42.138;24.762;2023-12-04T07:28:24;100469.31;;;4.40;99.02
11327;BME280;5718;42.138;24.762;2023-12-04T07:30:51;100470.03;;;4.37;98.09
11327;BME280;5718;42.138;24.762;2023-12-04T07:33:20;100468.56;;;4.42;99.67
11327;BME280;5718;42.138;24.762;2023-12-04T07:35:47;100471.47;;;4.51;100.00
11327;BME280;5718;42.138;24.762;2023-12-04T07:38:14;100464.53;;;4.49;99.56
11327;BME280;5718;42.138;24.762;2023-12-04T07:40:41;100470.00;;;4.57;99.82
11327;BME280;5718;42.138;24.762;2023-12-04T07:43:08;100470.91;;;4.59;99.88
11327;BME280;5718;42.138;24.762;2023-12-04T07:45:35;100478.69;;;4.60;97.05
11327;BME280;5718;42.138;24.762;2023-12-04T07:48:02;100476.16;;;4.62;96.66
11327;BME280;5718;42.138;24.762;2023-12-04T07:50:31;100473.75;;;4.65;95.23
11327;BME280;5718;42.138;24.762;2023-12-04T07:52:58;100480.88;;;4.72;92.27
11327;BME280;5718;42.138;24.762;2023-12-04T07:55:25;100478.66;;;4.81;92.12
11327;BME280;5718;42.138;24.762;2023-12-04T07:57:52;100481.94;;;4.77;89.18
11327;BME280;5718;42.138;24.762;2023-12-04T08:00:19;100487.84;;;4.74;90.09
11327;BME280;5718;42.138;24.762;2023-12-04T08:02:48;100480.28;;;4.79;91.72
11327;BME280;5718;42.138;24.762;2023-12-04T08:05:15;100476.66;;;4.96;88.54
11327;BME280;5718;42.138;24.762;2023-12-04T08:07:44;100477.84;;;5.04;89.54
11327;BME280;5718;42.138;24.762;2023-12-04T08:10:11;100478.31;;;4.94;88.72
11327;BME280;5718;42.138;24.762;2023-12-04T08:12:38;100482.19;;;5.05;87.11
11327;BME280;5718;42.138;24.762;2023-12-04T08:15:06;100485.09;;;4.92;86.95
11327;BME280;5718;42.138;24.762;2023-12-04T08:17:33;100481.47;;;5.10;86.62
11327;BME280;5718;42.138;24.762;2023-12-04T08:20:00;100481.72;;;5.16;87.15
11327;BME280;5718;42.138;24.762;2023-12-04T08:22:27;100480.41;;;5.27;88.58
11327;BME280;5718;42.138;24.762;2023-12-04T08:24:56;100482.28;;;5.31;87.68
11327;BME280;5718;42.138;24.762;2023-12-04T08:27:23;100467.28;;;5.21;85.65
11327;BME280;5718;42.138;24.762;2023-12-04T08:29:50;100469.41;;;5.08;87.00
11327;BME280;5718;42.138;24.762;2023-12-04T08:32:17;100471.41;;;5.16;89.54
11327;BME280;5718;42.138;24.762;2023-12-04T08:34:45;100474.66;;;5.12;87.77
11327;BME280;5718;42.138;24.762;2023-12-04T08:37:12;100479.28;;;5.20;89.59
11327;BME280;5718;42.138;24.762;2023-12-04T08:39:39;100474.38;;;5.26;87.62
11327;BME280;5718;42.138;24.762;2023-12-04T08:42:07;100486.41;;;5.27;86.25
11327;BME280;5718;42.138;24.762;2023-12-04T08:44:34;100488.31;;;5.31;90.53
11327;BME280;5718;42.138;24.762;2023-12-04T08:47:01;100483.16;;;5.31;86.70
11327;BME280;5718;42.138;24.762;2023-12-04T08:49:28;100494.63;;;5.40;88.09
11327;BME280;5718;42.138;24.762;2023-12-04T08:51:55;100493.78;;;5.41;89.71
11327;BME280;5718;42.138;24.762;2023-12-04T08:54:23;100487.22;;;5.49;88.33
11327;BME280;5718;42.138;24.762;2023-12-04T08:56:50;100499.38;;;5.53;90.15
11327;BME280;5718;42.138;24.762;2023-12-04T08:59:18;100495.94;;;5.52;89.21
11327;BME280;5718;42.138;24.762;2023-12-04T09:01:46;100484.94;;;5.56;91.35
11327;BME280;5718;42.138;24.762;2023-12-04T09:04:13;100487.59;;;5.59;91.06
11327;BME280;5718;42.138;24.762;2023-12-04T09:06:39;100485.66;;;5.54;91.01
11327;BME280;5718;42.138;24.762;2023-12-04T09:09:06;100480.47;;;5.52;91.49
11327;BME280;5718;42.138;24.762;2023-12-04T09:11:33;100482.41;;;5.58;91.20
11327;BME280;5718;42.138;24.762;2023-12-04T09:14:00;100477.03;;;5.76;92.55
11327;BME280;5718;42.138;24.762;2023-12-04T09:16:28;100479.97;;;5.62;91.49
11327;BME280;5718;42.138;24.762;2023-12-04T09:18:55;100472.44;;;5.91;93.99
11327;BME280;5718;42.138;24.762;2023-12-04T09:21:22;100470.78;;;5.93;91.11
11327;BME280;5718;42.138;24.762;2023-12-04T09:23:49;100468.41;;;5.99;93.24
11327;BME280;5718;42.138;24.762;2023-12-04T09:26:16;100464.53;;;6.12;95.43
11327;BME280;5718;42.138;24.762;2023-12-04T09:28:43;100457.88;;;6.18;94.25
11327;BME280;5718;42.138;24.762;2023-12-04T09:31:10;100459.06;;;6.28;93.15
11327;BME280;5718;42.138;24.762;2023-12-04T09:33:38;100454.69;;;6.26;92.90
11327;BME280;5718;42.138;24.762;2023-12-04T09:36:06;100461.63;;;6.28;93.07
11327;BME280;5718;42.138;24.762;2023-12-04T09:38:34;100450.09;;;6.17;92.62
11327;BME280;5718;42.138;24.762;2023-12-04T09:41:01;100444.31;;;6.24;94.04
11327;BME280;5718;42.138;24.762;2023-12-04T09:43:31;100443.00;;;6.37;93.89
11327;BME280;5718;42.138;24.762;2023-12-04T09:45:58;100442.63;;;6.52;94.88
11327;BME280;5718;42.138;24.762;2023-12-04T09:48:26;100447.59;;;6.45;89.36
11327;BME280;5718;42.138;24.762;2023-12-04T09:50:54;100453.22;;;6.34;91.39
11327;BME280;5718;42.138;24.762;2023-12-04T09:53:22;100440.22;;;6.29;92.47
11327;BME280;5718;42.138;24.762;2023-12-04T09:55:49;100445.75;;;6.41;93.56
11327;BME280;5718;42.138;24.762;2023-12-04T09:58:19;100439.63;;;6.38;92.56
11327;BME280;5718;42.138;24.762;2023-12-04T10:00:46;100444.03;;;6.42;94.58
11327;BME280;5718;42.138;24.762;2023-12-04T10:03:13;100445.06;;;6.47;94.92
11327;BME280;5718;42.138;24.762;2023-12-04T10:05:43;100443.53;;;6.54;94.84
11327;BME280;5718;42.138;24.762;2023-12-04T10:08:12;100447.94;;;6.56;95.17
11327;BME280;5718;42.138;24.762;2023-12-04T10:10:38;100440.56;;;6.68;93.16
11327;BME280;5718;42.138;24.762;2023-12-04T10:13:06;100431.72;;;6.60;92.64
11327;BME280;5718;42.138;24.762;2023-12-04T10:15:33;100431.81;;;6.63;94.84
11327;BME280;5718;42.138;24.762;2023-12-04T10:17:59;100428.09;;;6.82;94.38
11327;BME280;5718;42.138;24.762;2023-12-04T10:20:26;100439.72;;;6.96;95.03
11327;BME280;5718;42.138;24.762;2023-12-04T10:22:54;100431.31;;;7.03;94.76
11327;BME280;5718;42.138;24.762;2023-12-04T10:25:23;100434.66;;;7.01;92.01
11327;BME280;5718;42.138;24.762;2023-12-04T10:27:52;100437.13;;;6.96;93.63
11327;BME280;5718;42.138;24.762;2023-12-04T10:30:23;100434.66;;;7.01;93.39
11327;BME280;5718;42.138;24.762;2023-12-04T10:32:54;100429.75;;;7.10;94.88
11327;BME280;5718;42.138;24.762;2023-12-04T10:35:21;100425.16;;;7.28;92.71
11327;BME280;5718;42.138;24.762;2023-12-04T10:37:52;100427.50;;;7.21;90.62
11327;BME280;5718;42.138;24.762;2023-12-04T10:40:25;100431.69;;;7.17;91.15
11327;BME280;5718;42.138;24.762;2023-12-04T10:43:10;100427.84;;;7.03;91.95
11327;BME280;5718;42.138;24.762;2023-12-04T10:45:37;100422.25;;;7.18;93.53
11327;BME280;5718;42.138;24.762;2023-12-04T10:48:05;100423.25;;;7.23;91.82
11327;BME280;5718;42.138;24.762;2023-12-04T10:50:33;100417.19;;;7.21;92.31
11327;BME280;5718;42.138;24.762;2023-12-04T10:53:01;100424.56;;;7.39;92.74
11327;BME280;5718;42.138;24.762;2023-12-04T10:55:31;100419.88;;;7.25;89.80
11327;BME280;5718;42.138;24.762;2023-12-04T10:57:59;100420.84;;;7.29;91.47
11327;BME280;5718;42.138;24.762;2023-12-04T11:00:28;100412.53;;;7.39;92.00
11327;BME280;5718;42.138;24.762;2023-12-04T11:03:03;100427.22;;;7.42;89.64
11327;BME280;5718;42.138;24.762;2023-12-04T11:05:32;100425.41;;;7.38;89.57
11327;BME280;5718;42.138;24.762;2023-12-04T11:08:02;100430.56;;;7.38;88.06
11327;BME280;5718;42.138;24.762;2023-12-04T11:10:32;100427.41;;;7.48;87.54
11327;BME280;5718;42.138;24.762;2023-12-04T11:13:02;100430.03;;;7.49;87.27
11327;BME280;5718;42.138;24.762;2023-12-04T11:15:39;100424.94;;;7.52;86.62
11327;BME280;5718;42.138;24.762;2023-12-04T11:18:07;100434.75;;;7.64;87.24
11327;BME280;5718;42.138;24.762;2023-12-04T11:20:41;100430.69;;;7.74;87.25
11327;BME280;5718;42.138;24.762;2023-12-04T11:23:08;100433.88;;;7.64;84.91
11327;BME280;5718;42.138;24.762;2023-12-04T11:25:37;100429.31;;;7.55;87.56
11327;BME280;5718;42.138;24.762;2023-12-04T11:28:05;100425.66;;;7.78;87.64
11327;BME280;5718;42.138;24.762;2023-12-04T11:30:32;100425.69;;;7.80;85.52
11327;BME280;5718;42.138;24.762;2023-12-04T11:33:00;100422.25;;;7.81;85.78
11327;BME280;5718;42.138;24.762;2023-12-04T11:35:27;100427.47;;;7.82;83.77
11327;BME280;5718;42.138;24.762;2023-12-04T11:37:54;100430.63;;;7.71;84.23
11327;BME280;5718;42.138;24.762;2023-12-04T11:40:22;100434.34;;;7.82;85.11
11327;BME280;5718;42.138;24.762;2023-12-04T11:42:52;100432.19;;;7.99;83.24
11327;BME280;5718;42.138;24.762;2023-12-04T11:45:20;100432.97;;;7.95;83.33
11327;BME280;5718;42.138;24.762;2023-12-04T11:47:51;100434.81;;;8.00;83.15
11327;BME280;5718;42.138;24.762;2023-12-04T11:50:19;100432.97;;;7.95;84.35
11327;BME280;5718;42.138;24.762;2023-12-04T11:52:46;100439.66;;;8.21;82.46
11327;BME280;5718;42.138;24.762;2023-12-04T11:55:16;100439.66;;;8.21;81.69
11327;BME280;5718;42.138;24.762;2023-12-04T11:57:44;100435.56;;;8.29;82.73
11327;BME280;5718;42.138;24.762;2023-12-04T12:00:20;100434.91;;;8.36;76.81
11327;BME280;5718;42.138;24.762;2023-12-04T12:03:00;100443.66;;;8.43;78.00
11327;BME280;5718;42.138;24.762;2023-12-04T12:05:32;100441.69;;;8.34;78.77
11327;BME280;5718;42.138;24.762;2023-12-04T12:08:03;100445.09;;;8.32;79.88
11327;BME280;5718;42.138;24.762;2023-12-04T12:10:32;100454.41;;;8.25;77.91
11327;BME280;5718;42.138;24.762;2023-12-04T12:12:59;100449.47;;;8.34;78.98
11327;BME280;5718;42.138;24.762;2023-12-04T12:15:28;100439.91;;;8.32;80.06
11327;BME280;5718;42.138;24.762;2023-12-04T12:17:56;100439.94;;;8.33;81.81
11327;BME280;5718;42.138;24.762;2023-12-04T12:20:22;100438.47;;;8.41;80.04
11327;BME280;5718;42.138;24.762;2023-12-04T12:22:49;100430.84;;;8.48;79.34
11327;BME280;5718;42.138;24.762;2023-12-04T12:25:17;100438.69;;;8.17;80.23
11327;BME280;5718;42.138;24.762;2023-12-04T12:27:45;100439.06;;;7.97;81.57
11327;BME280;5718;42.138;24.762;2023-12-04T12:30:12;100436.88;;;8.13;81.90
11327;BME280;5718;42.138;24.762;2023-12-04T12:32:41;100435.41;;;8.23;83.25
11327;BME280;5718;42.138;24.762;2023-12-04T12:35:08;100428.16;;;8.10;81.46
11327;BME280;5718;42.138;24.762;2023-12-04T12:37:38;100428.28;;;7.80;81.64
11327;BME280;5718;42.138;24.762;2023-12-04T12:40:06;100422.97;;;7.75;83.65
11327;BME280;5718;42.138;24.762;2023-12-04T12:42:35;100427.97;;;7.69;82.17
11327;BME280;5718;42.138;24.762;2023-12-04T12:45:05;100427.44;;;7.81;82.44
11327;BME280;5718;42.138;24.762;2023-12-04T12:47:32;100426.00;;;7.94;82.00
11327;BME280;5718;42.138;24.762;2023-12-04T12:50:02;100425.34;;;8.01;82.24
11327;BME280;5718;42.138;24.762;2023-12-04T12:52:29;100426.72;;;7.86;82.22
11327;BME280;5718;42.138;24.762;2023-12-04T12:54:56;100415.88;;;7.68;89.26
11327;BME280;5718;42.138;24.762;2023-12-04T12:57:23;100421.72;;;7.61;91.64